createdAt,value
2019-02-08T00:00:35.611Z,0
2019-02-08T00:01:37.764Z,0
2019-02-08T00:02:40.604Z,0
2019-02-08T00:03:43.443Z,0
2019-02-08T00:04:45.586Z,0
2019-02-08T00:05:49.698Z,0
2019-02-08T00:06:54.038Z,0
2019-02-08T00:07:56.199Z,0
2019-02-08T00:08:58.354Z,0
2019-02-08T00:10:01.096Z,0
2019-02-08T00:11:05.410Z,0
2019-02-08T00:12:07.538Z,0
2019-02-08T00:13:10.031Z,0
2019-02-08T00:14:12.493Z,0
2019-02-08T00:15:15.029Z,0
2019-02-08T00:16:18.463Z,0
2019-02-08T00:17:22.013Z,0
2019-02-08T00:18:26.861Z,0
2019-02-08T00:19:29.003Z,0
2019-02-08T00:20:31.165Z,0
2019-02-08T00:21:33.574Z,0
2019-02-08T00:22:36.108Z,0
2019-02-08T00:23:38.268Z,0
2019-02-08T00:24:41.379Z,0
2019-02-08T00:25:45.097Z,0
2019-02-08T00:26:47.841Z,0
2019-02-08T00:27:49.973Z,0
2019-02-08T00:28:53.433Z,0
2019-02-08T00:29:56.901Z,0
2019-02-08T00:31:01.541Z,0
2019-02-08T00:32:06.001Z,0
2019-02-08T00:33:10.441Z,0
2019-02-08T00:34:12.833Z,0
2019-02-08T00:35:14.975Z,0
2019-02-08T00:36:17.139Z,0
2019-02-08T00:37:19.273Z,0
2019-02-08T00:38:21.428Z,0
2019-02-08T00:39:23.555Z,0
2019-02-08T00:40:26.100Z,0
2019-02-08T00:41:31.902Z,0
2019-02-08T00:42:34.037Z,0
2019-02-08T00:43:36.219Z,0
2019-02-08T00:44:38.669Z,0
2019-02-08T00:45:40.823Z,0
2019-02-08T00:46:42.992Z,0
2019-02-08T00:47:45.119Z,0
2019-02-08T00:48:47.668Z,0
2019-02-08T00:49:50.195Z,0
2019-02-08T00:50:52.355Z,0
2019-02-08T00:51:56.009Z,0
2019-02-08T00:52:58.429Z,0
2019-02-08T00:54:00.592Z,0
2019-02-08T00:55:03.102Z,0
2019-02-08T00:56:05.288Z,0
2019-02-08T00:57:07.814Z,0
2019-02-08T00:58:09.945Z,0
2019-02-08T00:59:12.086Z,0
2019-02-08T01:00:14.244Z,0
2019-02-08T01:01:16.383Z,0
2019-02-08T01:02:19.618Z,0
2019-02-08T01:03:21.757Z,0
2019-02-08T01:04:24.189Z,0
2019-02-08T01:05:26.340Z,0
2019-02-08T01:06:28.498Z,0
2019-02-08T01:07:30.628Z,0
2019-02-08T01:08:32.770Z,0
2019-02-08T01:09:34.910Z,0
2019-02-08T01:10:37.057Z,0
2019-02-08T01:11:39.226Z,0
2019-02-08T01:12:42.917Z,0
2019-02-08T01:13:45.439Z,0
2019-02-08T01:14:47.971Z,0
2019-02-08T01:15:50.127Z,0
2019-02-08T01:16:52.544Z,0
2019-02-08T01:17:54.691Z,0
2019-02-08T01:18:57.121Z,0
2019-02-08T01:19:59.290Z,0
2019-02-08T01:21:02.107Z,0
2019-02-08T01:22:04.241Z,0
2019-02-08T01:23:07.655Z,0
2019-02-08T01:24:09.819Z,0
2019-02-08T01:25:12.304Z,0
2019-02-08T01:26:14.444Z,0
2019-02-08T01:27:16.575Z,0
2019-02-08T01:28:18.668Z,0
2019-02-08T01:29:20.895Z,0
2019-02-08T01:30:23.323Z,0
2019-02-08T01:31:25.455Z,0
2019-02-08T01:32:27.851Z,0
2019-02-08T01:33:29.975Z,0
2019-02-08T01:34:32.096Z,0
2019-02-08T01:35:34.222Z,0
2019-02-08T01:36:36.720Z,0
2019-02-08T01:37:38.847Z,0
2019-02-08T01:38:40.958Z,0
2019-02-08T01:39:43.379Z,0
2019-02-08T01:40:45.486Z,0
2019-02-08T01:41:47.606Z,0
2019-02-08T01:42:49.717Z,0
2019-02-08T01:43:51.854Z,0
2019-02-08T01:44:54.009Z,0
2019-02-08T01:45:56.146Z,0
2019-02-08T01:46:58.942Z,0
2019-02-08T01:48:02.266Z,0
2019-02-08T01:49:04.693Z,0
2019-02-08T01:50:07.077Z,0
2019-02-08T01:51:09.193Z,0
2019-02-08T01:52:11.318Z,0
2019-02-08T01:53:13.409Z,0
2019-02-08T01:54:15.915Z,0
2019-02-08T01:55:18.022Z,0
2019-02-08T01:56:20.163Z,0
2019-02-08T01:57:22.557Z,0
2019-02-08T01:58:24.694Z,0
2019-02-08T01:59:26.823Z,0
2019-02-08T02:00:28.940Z,0
2019-02-08T02:01:31.077Z,0
2019-02-08T02:02:33.458Z,0
2019-02-08T02:03:35.866Z,0
2019-02-08T02:04:38.381Z,0
2019-02-08T02:05:40.783Z,0
2019-02-08T02:06:42.882Z,0
2019-02-08T02:07:44.995Z,0
2019-02-08T02:08:47.761Z,0
2019-02-08T02:09:50.169Z,0
2019-02-08T02:10:52.292Z,0
2019-02-08T02:11:54.401Z,0
2019-02-08T02:12:56.819Z,0
2019-02-08T02:13:58.954Z,0
2019-02-08T02:15:01.061Z,0
2019-02-08T02:16:04.151Z,0
2019-02-08T02:17:06.399Z,0
2019-02-08T02:18:08.498Z,0
2019-02-08T02:19:10.621Z,0
2019-02-08T02:20:13.005Z,0
2019-02-08T02:21:15.130Z,0
2019-02-08T02:22:17.225Z,0
2019-02-08T02:23:19.356Z,0
2019-02-08T02:24:21.489Z,0
2019-02-08T02:25:23.594Z,0
2019-02-08T02:26:25.726Z,0
2019-02-08T02:27:27.833Z,0
2019-02-08T02:28:29.946Z,0
2019-02-08T02:29:32.060Z,0
2019-02-08T02:30:34.190Z,0
2019-02-08T02:31:36.996Z,0
2019-02-08T02:32:39.118Z,0
2019-02-08T02:33:41.242Z,0
2019-02-08T02:34:43.647Z,0
2019-02-08T02:35:45.779Z,0
2019-02-08T02:36:48.292Z,0
2019-02-08T02:37:50.422Z,0
2019-02-08T02:38:52.569Z,0
2019-02-08T02:39:55.065Z,0
2019-02-08T02:40:57.474Z,0
2019-02-08T02:41:59.607Z,0
2019-02-08T02:43:02.011Z,0
2019-02-08T02:44:04.459Z,0
2019-02-08T02:45:06.635Z,0
2019-02-08T02:46:08.744Z,0
2019-02-08T02:47:10.878Z,0
2019-02-08T02:48:12.988Z,0
2019-02-08T02:49:15.811Z,0
2019-02-08T02:50:17.936Z,0
2019-02-08T02:51:20.033Z,0
2019-02-08T02:52:22.434Z,0
2019-02-08T02:53:24.848Z,0
2019-02-08T02:54:27.661Z,0
2019-02-08T02:55:29.781Z,0
2019-02-08T02:56:31.909Z,0
2019-02-08T02:57:34.030Z,0
2019-02-08T02:58:36.164Z,0
2019-02-08T02:59:38.335Z,0
2019-02-08T03:00:41.136Z,0
2019-02-08T03:01:43.945Z,0
2019-02-08T03:02:46.357Z,0
2019-02-08T03:03:48.530Z,0
2019-02-08T03:04:50.649Z,0
2019-02-08T03:05:52.818Z,0
2019-02-08T03:06:55.265Z,0
2019-02-08T03:07:57.991Z,0
2019-02-08T03:09:00.119Z,0
2019-02-08T03:10:02.260Z,0
2019-02-08T03:11:04.406Z,0
2019-02-08T03:12:06.533Z,0
2019-02-08T03:13:08.725Z,0
2019-02-08T03:14:12.015Z,0
2019-02-08T03:15:14.402Z,0
2019-02-08T03:16:16.513Z,0
2019-02-08T03:17:18.633Z,0
2019-02-08T03:18:21.094Z,0
2019-02-08T03:19:23.203Z,0
2019-02-08T03:20:25.333Z,0
2019-02-08T03:21:27.734Z,0
2019-02-08T03:22:29.856Z,0
2019-02-08T03:23:32.264Z,0
2019-02-08T03:24:34.647Z,0
2019-02-08T03:25:37.054Z,0
2019-02-08T03:26:39.470Z,0
2019-02-08T03:27:42.579Z,0
2019-02-08T03:28:44.681Z,0
2019-02-08T03:29:47.157Z,0
2019-02-08T03:30:49.275Z,0
2019-02-08T03:31:52.444Z,0
2019-02-08T03:32:55.865Z,0
2019-02-08T03:33:59.654Z,0
2019-02-08T03:35:02.061Z,0
2019-02-08T03:36:04.481Z,0
2019-02-08T03:37:06.608Z,0
2019-02-08T03:38:08.717Z,0
2019-02-08T03:39:11.137Z,0
2019-02-08T03:40:13.588Z,0
2019-02-08T03:41:15.691Z,0
2019-02-08T03:42:17.812Z,0
2019-02-08T03:43:19.959Z,0
2019-02-08T03:44:22.399Z,0
2019-02-08T03:45:24.512Z,0
2019-02-08T03:46:26.945Z,0
2019-02-08T03:47:29.057Z,0
2019-02-08T03:48:31.185Z,0
2019-02-08T03:49:33.319Z,0
2019-02-08T03:50:35.430Z,0
2019-02-08T03:51:37.556Z,0
2019-02-08T03:52:39.955Z,0
2019-02-08T03:53:42.111Z,0
2019-02-08T03:54:44.514Z,0
2019-02-08T03:55:47.248Z,0
2019-02-08T03:56:57.506Z,0
2019-02-08T03:57:59.618Z,0
2019-02-08T03:59:02.017Z,0
2019-02-08T04:00:04.412Z,0
2019-02-08T04:01:06.536Z,0
2019-02-08T04:02:08.638Z,0
2019-02-08T04:03:10.765Z,0
2019-02-08T04:04:12.913Z,0
2019-02-08T04:05:15.750Z,0
2019-02-08T04:06:17.879Z,0
2019-02-08T04:07:19.986Z,0
2019-02-08T04:08:22.120Z,0
2019-02-08T04:09:24.249Z,0
2019-02-08T04:10:26.381Z,0
2019-02-08T04:11:28.489Z,0
2019-02-08T04:12:30.608Z,0
2019-02-08T04:13:33.028Z,0
2019-02-08T04:14:35.422Z,0
2019-02-08T04:15:37.847Z,0
2019-02-08T04:16:40.038Z,0
2019-02-08T04:17:42.155Z,0
2019-02-08T04:18:44.653Z,0
2019-02-08T04:19:46.786Z,0
2019-02-08T04:20:48.893Z,0
2019-02-08T04:21:51.343Z,0
2019-02-08T04:22:53.455Z,0
2019-02-08T04:23:55.857Z,0
2019-02-08T04:24:57.972Z,0
2019-02-08T04:26:00.098Z,0
2019-02-08T04:27:02.196Z,0
2019-02-08T04:28:04.306Z,0
2019-02-08T04:29:06.432Z,0
2019-02-08T04:30:08.539Z,0
2019-02-08T04:31:10.673Z,0
2019-02-08T04:32:13.073Z,0
2019-02-08T04:33:15.245Z,0
2019-02-08T04:34:17.921Z,0
2019-02-08T04:35:20.094Z,0
2019-02-08T04:36:22.223Z,0
2019-02-08T04:37:24.716Z,0
2019-02-08T04:38:26.843Z,0
2019-02-08T04:39:29.247Z,0
2019-02-08T04:40:31.716Z,0
2019-02-08T04:41:34.231Z,0
2019-02-08T04:42:36.343Z,0
2019-02-08T04:43:38.723Z,0
2019-02-08T04:44:40.854Z,0
2019-02-08T04:45:43.523Z,0
2019-02-08T04:46:45.647Z,0
2019-02-08T04:47:48.062Z,0
2019-02-08T04:48:50.188Z,0
2019-02-08T04:49:52.305Z,0
2019-02-08T04:50:55.096Z,0
2019-02-08T04:51:57.202Z,0
2019-02-08T04:52:59.375Z,0
2019-02-08T04:54:02.174Z,0
2019-02-08T04:55:04.687Z,0
2019-02-08T04:56:06.813Z,0
2019-02-08T04:57:08.956Z,0
2019-02-08T04:58:11.079Z,0
2019-02-08T04:59:13.183Z,0
2019-02-08T05:00:15.310Z,0
2019-02-08T05:01:17.417Z,0
2019-02-08T05:02:19.538Z,0
2019-02-08T05:03:21.672Z,0
2019-02-08T05:04:24.060Z,0
2019-02-08T05:05:26.201Z,0
2019-02-08T05:06:28.314Z,0
2019-02-08T05:07:31.024Z,0
2019-02-08T05:08:33.454Z,0
2019-02-08T05:09:35.561Z,0
2019-02-08T05:10:38.067Z,0
2019-02-08T05:11:40.959Z,0
2019-02-08T05:12:43.342Z,0
2019-02-08T05:13:45.469Z,0
2019-02-08T05:14:47.579Z,0
2019-02-08T05:15:49.714Z,0
2019-02-08T05:16:51.812Z,0
2019-02-08T05:17:53.935Z,0
2019-02-08T05:18:56.339Z,0
2019-02-08T05:19:58.453Z,0
2019-02-08T05:21:01.110Z,0
2019-02-08T05:22:03.224Z,0
2019-02-08T05:23:05.340Z,0
2019-02-08T05:24:07.491Z,0
2019-02-08T05:25:09.647Z,0
2019-02-08T05:26:12.069Z,0
2019-02-08T05:27:14.181Z,0
2019-02-08T05:28:16.277Z,0
2019-02-08T05:29:18.388Z,0
2019-02-08T05:30:20.521Z,0
2019-02-08T05:31:22.645Z,0
2019-02-08T05:32:25.150Z,0
2019-02-08T05:33:27.292Z,0
2019-02-08T05:34:29.822Z,0
2019-02-08T05:35:31.952Z,0
2019-02-08T05:36:34.087Z,0
2019-02-08T05:37:36.464Z,0
2019-02-08T05:38:38.602Z,0
2019-02-08T05:39:40.718Z,0
2019-02-08T05:40:43.138Z,0
2019-02-08T05:41:45.294Z,0
2019-02-08T05:42:47.421Z,0
2019-02-08T05:43:50.618Z,0
2019-02-08T05:44:52.726Z,0
2019-02-08T05:45:54.842Z,0
2019-02-08T05:46:56.965Z,0
2019-02-08T05:47:59.077Z,0
2019-02-08T05:49:01.216Z,0
2019-02-08T05:50:03.319Z,0
2019-02-08T05:51:05.445Z,0
2019-02-08T05:52:08.115Z,0
2019-02-08T05:53:10.507Z,0
2019-02-08T05:54:12.643Z,0
2019-02-08T05:55:14.766Z,0
2019-02-08T05:56:16.909Z,0
2019-02-08T05:57:19.025Z,0
2019-02-08T05:58:21.422Z,0
2019-02-08T05:59:23.522Z,0
2019-02-08T06:00:26.054Z,0
2019-02-08T06:01:28.175Z,0
2019-02-08T06:02:30.290Z,0
2019-02-08T06:03:32.415Z,0
2019-02-08T06:04:34.913Z,0
2019-02-08T06:05:37.307Z,0
2019-02-08T06:06:39.450Z,0
2019-02-08T06:07:41.586Z,0
2019-02-08T06:08:43.696Z,0
2019-02-08T06:09:45.844Z,0
2019-02-08T06:10:47.952Z,0
2019-02-08T06:11:50.128Z,0
2019-02-08T06:12:52.245Z,0
2019-02-08T06:13:54.655Z,0
2019-02-08T06:14:57.074Z,0
2019-02-08T06:15:59.255Z,0
2019-02-08T06:17:01.782Z,4
2019-02-08T06:18:03.936Z,4
2019-02-08T06:19:06.729Z,0
2019-02-08T06:20:08.835Z,4
2019-02-08T06:21:10.959Z,4
2019-02-08T06:22:13.080Z,8
2019-02-08T06:23:15.605Z,4
2019-02-08T06:24:18.016Z,8
2019-02-08T06:25:20.134Z,8
2019-02-08T06:26:23.098Z,8
2019-02-08T06:27:25.250Z,12
2019-02-08T06:28:27.646Z,16
2019-02-08T06:29:29.777Z,12
2019-02-08T06:30:31.907Z,20
2019-02-08T06:31:34.496Z,24
2019-02-08T06:32:36.885Z,28
2019-02-08T06:33:39.001Z,32
2019-02-08T06:34:41.483Z,36
2019-02-08T06:35:43.618Z,40
2019-02-08T06:36:45.747Z,48
2019-02-08T06:37:48.154Z,56
2019-02-08T06:38:51.205Z,68
2019-02-08T06:39:53.329Z,76
2019-02-08T06:40:55.436Z,92
2019-02-08T06:41:57.551Z,100
2019-02-08T06:42:59.685Z,116
2019-02-08T06:44:02.388Z,124
2019-02-08T06:45:04.520Z,136
2019-02-08T06:46:06.968Z,148
2019-02-08T06:47:09.452Z,160
2019-02-08T06:48:12.011Z,176
2019-02-08T06:49:14.148Z,188
2019-02-08T06:50:16.261Z,204
2019-02-08T06:51:18.354Z,228
2019-02-08T06:52:20.806Z,256
2019-02-08T06:53:22.913Z,284
2019-02-08T06:54:25.027Z,312
2019-02-08T06:55:27.215Z,336
2019-02-08T06:56:29.360Z,348
2019-02-08T06:57:31.467Z,360
2019-02-08T06:58:33.589Z,360
2019-02-08T06:59:35.718Z,388
2019-02-08T07:00:37.824Z,444
2019-02-08T07:01:39.950Z,492
2019-02-08T07:02:42.069Z,524
2019-02-08T07:03:44.214Z,536
2019-02-08T07:04:46.320Z,600
2019-02-08T07:05:48.445Z,676
2019-02-08T07:06:50.557Z,708
2019-02-08T07:07:52.678Z,728
2019-02-08T07:08:55.068Z,728
2019-02-08T07:09:57.177Z,780
2019-02-08T07:10:59.292Z,820
2019-02-08T07:12:01.422Z,920
2019-02-08T07:13:03.797Z,1044
2019-02-08T07:14:05.913Z,1176
2019-02-08T07:15:08.032Z,1332
2019-02-08T07:16:10.421Z,1456
2019-02-08T07:17:12.542Z,1588
2019-02-08T07:18:14.701Z,1680
2019-02-08T07:19:16.813Z,1628
2019-02-08T07:20:19.295Z,1604
2019-02-08T07:21:21.431Z,1680
2019-02-08T07:22:23.533Z,1812
2019-02-08T07:23:25.639Z,1888
2019-02-08T07:24:27.776Z,1824
2019-02-08T07:25:30.186Z,1808
2019-02-08T07:26:32.307Z,1904
2019-02-08T07:27:34.417Z,1984
2019-02-08T07:28:36.583Z,1984
2019-02-08T07:29:38.695Z,2060
2019-02-08T07:30:40.823Z,2188
2019-02-08T07:31:42.928Z,2412
2019-02-08T07:32:45.030Z,2600
2019-02-08T07:33:47.447Z,3128
2019-02-08T07:34:49.830Z,3604
2019-02-08T07:35:52.252Z,3608
2019-02-08T07:36:54.383Z,3656
2019-02-08T07:37:56.890Z,3836
2019-02-08T07:38:58.990Z,4120
2019-02-08T07:40:01.111Z,4520
2019-02-08T07:41:03.270Z,5300
2019-02-08T07:42:05.668Z,7672
2019-02-08T07:43:08.966Z,7560
2019-02-08T07:44:11.157Z,6832
2019-02-08T07:45:13.283Z,7776
2019-02-08T07:46:15.381Z,8744
2019-02-08T07:47:17.519Z,9364
2019-02-08T07:48:19.930Z,9720
2019-02-08T07:49:22.035Z,9484
2019-02-08T07:50:24.555Z,9548
2019-02-08T07:51:26.671Z,9488
2019-02-08T07:52:28.782Z,8544
2019-02-08T07:53:30.892Z,8996
2019-02-08T07:54:33.022Z,12524
2019-02-08T07:55:35.124Z,12584
2019-02-08T07:56:37.253Z,13864
2019-02-08T07:57:39.376Z,15616
2019-02-08T07:58:41.476Z,15584
2019-02-08T07:59:43.599Z,16064
2019-02-08T08:00:45.716Z,13092
2019-02-08T08:01:48.172Z,13364
2019-02-08T08:02:50.268Z,9456
2019-02-08T08:03:52.404Z,11576
2019-02-08T08:05:03.154Z,8892
2019-02-08T08:06:05.283Z,10840
2019-02-08T08:07:07.409Z,15040
2019-02-08T08:08:09.513Z,11520
2019-02-08T08:09:11.629Z,7024
2019-02-08T08:10:13.758Z,6088
2019-02-08T08:11:15.942Z,5704
2019-02-08T08:12:18.333Z,5676
2019-02-08T08:13:20.454Z,5624
2019-02-08T08:14:22.559Z,5828
2019-02-08T08:15:24.679Z,5568
2019-02-08T08:16:26.808Z,6140
2019-02-08T08:17:28.928Z,6600
2019-02-08T08:18:31.318Z,6672
2019-02-08T08:19:33.450Z,6384
2019-02-08T08:20:35.582Z,6100
2019-02-08T08:21:37.986Z,5920
2019-02-08T08:22:40.391Z,5768
2019-02-08T08:23:42.506Z,5836
2019-02-08T08:24:44.624Z,6532
2019-02-08T08:25:47.021Z,8480
2019-02-08T08:26:49.147Z,15492
2019-02-08T08:27:51.258Z,22144
2019-02-08T08:28:53.785Z,19200
2019-02-08T08:29:55.903Z,20640
2019-02-08T08:30:58.012Z,28096
2019-02-08T08:32:00.435Z,20384
2019-02-08T08:33:02.545Z,30560
2019-02-08T08:34:04.662Z,28288
2019-02-08T08:35:06.782Z,26464
2019-02-08T08:36:08.918Z,27008
2019-02-08T08:37:11.030Z,15204
2019-02-08T08:38:13.155Z,8296
2019-02-08T08:39:15.669Z,7776
2019-02-08T08:40:18.541Z,8472
2019-02-08T08:41:20.954Z,9900
2019-02-08T08:42:23.077Z,11400
2019-02-08T08:43:25.563Z,12880
2019-02-08T08:44:27.682Z,17020
2019-02-08T08:45:29.811Z,13056
2019-02-08T08:46:32.331Z,16964
2019-02-08T08:47:34.469Z,11592
2019-02-08T08:48:36.610Z,11648
2019-02-08T08:49:39.013Z,12380
2019-02-08T08:50:41.175Z,12544
2019-02-08T08:51:43.302Z,11948
2019-02-08T08:52:45.414Z,11784
2019-02-08T08:53:47.527Z,14188
2019-02-08T08:54:49.652Z,18688
2019-02-08T08:55:51.825Z,15928
2019-02-08T08:56:53.934Z,14316
2019-02-08T08:57:56.054Z,12292
2019-02-08T08:58:58.166Z,10696
2019-02-08T09:00:00.302Z,9688
2019-02-08T09:01:02.447Z,9352
2019-02-08T09:02:04.570Z,9136
2019-02-08T09:03:07.075Z,8408
2019-02-08T09:04:09.184Z,7332
2019-02-08T09:05:11.315Z,6648
2019-02-08T09:06:13.424Z,6108
2019-02-08T09:07:16.467Z,5752
2019-02-08T09:08:19.020Z,5744
2019-02-08T09:09:21.443Z,5892
2019-02-08T09:10:23.561Z,5856
2019-02-08T09:11:25.682Z,5932
2019-02-08T09:12:27.803Z,5840
2019-02-08T09:13:29.955Z,5668
2019-02-08T09:14:32.079Z,5512
2019-02-08T09:15:34.248Z,5360
2019-02-08T09:16:37.059Z,5448
2019-02-08T09:17:39.171Z,5124
2019-02-08T09:18:41.290Z,5188
2019-02-08T09:19:43.407Z,4700
2019-02-08T09:20:45.534Z,4264
2019-02-08T09:21:47.650Z,4804
2019-02-08T09:22:50.203Z,5236
2019-02-08T09:23:52.365Z,5520
2019-02-08T09:24:54.789Z,5556
2019-02-08T09:25:56.888Z,5628
2019-02-08T09:26:59.315Z,5632
2019-02-08T09:28:01.437Z,5340
2019-02-08T09:29:03.567Z,5184
2019-02-08T09:30:05.709Z,5124
2019-02-08T09:31:07.820Z,5524
2019-02-08T09:32:10.343Z,5860
2019-02-08T09:33:12.456Z,6388
2019-02-08T09:34:14.587Z,7248
2019-02-08T09:35:16.705Z,7540
2019-02-08T09:36:18.814Z,7680
2019-02-08T09:37:21.321Z,8396
2019-02-08T09:38:23.490Z,9240
2019-02-08T09:39:25.624Z,9644
2019-02-08T09:40:28.053Z,9632
2019-02-08T09:41:30.176Z,9724
2019-02-08T09:42:32.278Z,9748
2019-02-08T09:43:34.436Z,9924
2019-02-08T09:44:36.547Z,9864
2019-02-08T09:45:38.656Z,9548
2019-02-08T09:46:40.815Z,9364
2019-02-08T09:47:42.921Z,9376
2019-02-08T09:48:45.042Z,9304
2019-02-08T09:49:47.170Z,8916
2019-02-08T09:50:49.285Z,8652
2019-02-08T09:51:51.388Z,8088
2019-02-08T09:52:53.518Z,7756
2019-02-08T09:53:55.625Z,7732
2019-02-08T09:54:57.789Z,8200
2019-02-08T09:56:00.910Z,8964
2019-02-08T09:57:03.310Z,9444
2019-02-08T09:58:05.431Z,9420
2019-02-08T09:59:07.594Z,9204
2019-02-08T10:00:09.711Z,9356
2019-02-08T10:01:11.820Z,9560
2019-02-08T10:02:13.944Z,9204
2019-02-08T10:03:16.056Z,8992
2019-02-08T10:04:18.172Z,8728
2019-02-08T10:05:20.304Z,8584
2019-02-08T10:06:22.436Z,8520
2019-02-08T10:07:24.552Z,8296
2019-02-08T10:08:26.694Z,8560
2019-02-08T10:09:28.810Z,9036
2019-02-08T10:10:30.909Z,9768
2019-02-08T10:11:33.016Z,10128
2019-02-08T10:12:35.142Z,9956
2019-02-08T10:13:37.536Z,9876
2019-02-08T10:14:39.654Z,9640
2019-02-08T10:15:42.531Z,8916
2019-02-08T10:16:44.659Z,8512
2019-02-08T10:17:46.764Z,7908
2019-02-08T10:18:48.877Z,7516
2019-02-08T10:19:51.307Z,7912
2019-02-08T10:20:54.108Z,10436
2019-02-08T10:21:56.367Z,14236
2019-02-08T10:22:58.499Z,16880
2019-02-08T10:24:01.019Z,18464
2019-02-08T10:25:03.697Z,18048
2019-02-08T10:26:05.823Z,17792
2019-02-08T10:27:07.932Z,17640
2019-02-08T10:28:10.044Z,16668
2019-02-08T10:29:12.170Z,16824
2019-02-08T10:30:14.281Z,16780
2019-02-08T10:31:16.961Z,17284
2019-02-08T10:32:19.122Z,16952
2019-02-08T10:33:21.235Z,17108
2019-02-08T10:34:23.641Z,20576
2019-02-08T10:35:25.816Z,27040
2019-02-08T10:36:28.497Z,22464
2019-02-08T10:37:30.614Z,24416
2019-02-08T10:38:32.722Z,21664
2019-02-08T10:39:34.859Z,21440
2019-02-08T10:40:36.962Z,21088
2019-02-08T10:41:39.089Z,20128
2019-02-08T10:42:41.212Z,18336
2019-02-08T10:43:43.324Z,17488
2019-02-08T10:44:45.458Z,17532
2019-02-08T10:45:47.567Z,16636
2019-02-08T10:46:49.970Z,16800
2019-02-08T10:47:52.356Z,16840
2019-02-08T10:48:54.483Z,16392
2019-02-08T10:49:56.598Z,17840
2019-02-08T10:50:59.095Z,19008
2019-02-08T10:52:01.590Z,19520
2019-02-08T10:53:03.721Z,18656
2019-02-08T10:54:05.838Z,16600
2019-02-08T10:55:07.952Z,14724
2019-02-08T10:56:14.960Z,13032
2019-02-08T10:57:17.655Z,13240
2019-02-08T10:58:19.772Z,15244
2019-02-08T10:59:21.894Z,17576
2019-02-08T11:00:24.001Z,16484
2019-02-08T11:01:26.393Z,14256
2019-02-08T11:02:28.913Z,15164
2019-02-08T11:03:31.042Z,16564
2019-02-08T11:04:33.148Z,18720
2019-02-08T11:05:35.275Z,19584
2019-02-08T11:06:37.388Z,20672
2019-02-08T11:07:39.544Z,20672
2019-02-08T11:08:41.702Z,23424
2019-02-08T11:09:43.802Z,22624
2019-02-08T11:10:45.934Z,14032
2019-02-08T11:11:48.050Z,11384
2019-02-08T11:12:50.173Z,10456
2019-02-08T11:13:52.264Z,10664
2019-02-08T11:14:54.385Z,10472
2019-02-08T11:15:56.496Z,10044
2019-02-08T11:16:58.601Z,10812
2019-02-08T11:18:00.755Z,10264
2019-02-08T11:19:03.148Z,10684
2019-02-08T11:20:05.547Z,11108
2019-02-08T11:21:07.654Z,13752
2019-02-08T11:22:09.799Z,12060
2019-02-08T11:23:11.908Z,10652
2019-02-08T11:24:14.055Z,11408
2019-02-08T11:25:16.177Z,10248
2019-02-08T11:26:22.578Z,9672
2019-02-08T11:27:26.570Z,8724
2019-02-08T11:28:29.100Z,8416
2019-02-08T11:29:31.224Z,8916
2019-02-08T11:30:33.731Z,8492
2019-02-08T11:31:35.828Z,9188
2019-02-08T11:32:43.063Z,9468
2019-02-08T11:33:46.085Z,8648
2019-02-08T11:34:48.592Z,8452
2019-02-08T11:35:50.743Z,8856
2019-02-08T11:36:52.858Z,10676
2019-02-08T11:37:55.444Z,12576
2019-02-08T11:38:57.594Z,9780
2019-02-08T11:39:59.746Z,9764
2019-02-08T11:41:01.915Z,6460
2019-02-08T11:42:04.047Z,5024
2019-02-08T11:43:06.200Z,5216
2019-02-08T11:44:08.327Z,6452
2019-02-08T11:45:10.446Z,5576
2019-02-08T11:46:12.850Z,6008
2019-02-08T11:47:14.949Z,8692
2019-02-08T11:48:17.070Z,7592
2019-02-08T11:49:19.189Z,8676
2019-02-08T11:50:21.301Z,10380
2019-02-08T11:51:23.443Z,17164
2019-02-08T11:52:25.853Z,18912
2019-02-08T11:53:27.984Z,15800
2019-02-08T11:54:30.097Z,21248
2019-02-08T11:55:32.231Z,20832
2019-02-08T11:56:34.342Z,19744
2019-02-08T11:57:36.469Z,17088
2019-02-08T11:58:38.892Z,14664
2019-02-08T11:59:41.277Z,13260
2019-02-08T12:00:43.437Z,14408
2019-02-08T12:01:45.561Z,14228
2019-02-08T12:02:48.054Z,16156
2019-02-08T12:03:50.457Z,22656
2019-02-08T12:04:52.582Z,26464
2019-02-08T12:05:54.700Z,30560
2019-02-08T12:06:56.830Z,23424
2019-02-08T12:07:59.229Z,19968
2019-02-08T12:09:01.342Z,19808
2019-02-08T12:10:03.760Z,16632
2019-02-08T12:11:05.895Z,19584
2019-02-08T12:12:08.015Z,15140
2019-02-08T12:13:10.138Z,14584
2019-02-08T12:14:12.262Z,15956
2019-02-08T12:15:14.387Z,16236
2019-02-08T12:16:16.807Z,16224
2019-02-08T12:17:18.970Z,15732
2019-02-08T12:18:21.094Z,14152
2019-02-08T12:19:23.202Z,12836
2019-02-08T12:20:25.333Z,13552
2019-02-08T12:21:27.445Z,13448
2019-02-08T12:22:29.564Z,11904
2019-02-08T12:23:32.072Z,11300
2019-02-08T12:24:35.130Z,14244
2019-02-08T12:25:37.257Z,10700
2019-02-08T12:26:39.378Z,10032
2019-02-08T12:27:41.900Z,11616
2019-02-08T12:28:43.998Z,9676
2019-02-08T12:29:46.130Z,9392
2019-02-08T12:30:48.255Z,10116
2019-02-08T12:31:50.363Z,9284
2019-02-08T12:32:52.506Z,8684
2019-02-08T12:33:54.621Z,8288
2019-02-08T12:34:56.744Z,7772
2019-02-08T12:35:58.875Z,7784
2019-02-08T12:37:01.670Z,6992
2019-02-08T12:38:03.781Z,6132
2019-02-08T12:39:05.906Z,8368
2019-02-08T12:40:08.022Z,9016
2019-02-08T12:41:10.186Z,6148
2019-02-08T12:42:14.298Z,6828
2019-02-08T12:43:16.430Z,8636
2019-02-08T12:44:18.568Z,6544
2019-02-08T12:45:20.679Z,5708
2019-02-08T12:46:22.802Z,7784
2019-02-08T12:47:24.928Z,5852
2019-02-08T12:48:27.034Z,6916
2019-02-08T12:49:29.180Z,6892
2019-02-08T12:50:32.233Z,4780
2019-02-08T12:51:34.465Z,5440
2019-02-08T12:52:36.635Z,6204
2019-02-08T12:53:39.054Z,5524
2019-02-08T12:54:41.471Z,5232
2019-02-08T12:55:43.588Z,5372
2019-02-08T12:56:45.915Z,5052
2019-02-08T12:57:48.316Z,5164
2019-02-08T12:58:50.438Z,5828
2019-02-08T12:59:52.561Z,6628
2019-02-08T13:00:54.697Z,7056
2019-02-08T13:01:57.097Z,9492
2019-02-08T13:02:59.222Z,9360
2019-02-08T13:04:01.352Z,8228
2019-02-08T13:05:05.091Z,8452
2019-02-08T13:06:07.230Z,9792
2019-02-08T13:07:10.378Z,8216
2019-02-08T13:08:12.588Z,7212
2019-02-08T13:09:14.717Z,8688
2019-02-08T13:10:17.123Z,9236
2019-02-08T13:11:19.229Z,9044
2019-02-08T13:12:21.356Z,8136
2019-02-08T13:13:23.472Z,7696
2019-02-08T13:14:25.619Z,11080
2019-02-08T13:15:28.034Z,11456
2019-02-08T13:16:30.175Z,10024
2019-02-08T13:17:32.292Z,8712
2019-02-08T13:18:34.423Z,12032
2019-02-08T13:19:36.528Z,46400
2019-02-08T13:20:39.041Z,16468
2019-02-08T13:21:41.435Z,15256
2019-02-08T13:22:43.565Z,10484
2019-02-08T13:23:45.679Z,11784
2019-02-08T13:24:47.803Z,13308
2019-02-08T13:25:50.492Z,11000
2019-02-08T13:26:53.104Z,7996
2019-02-08T13:27:55.576Z,7604
2019-02-08T13:28:58.088Z,8012
2019-02-08T13:30:00.502Z,7976
2019-02-08T13:31:02.907Z,6868
2019-02-08T13:32:05.717Z,5888
2019-02-08T13:33:07.832Z,5400
2019-02-08T13:34:09.972Z,6556
2019-02-08T13:35:12.078Z,8072
2019-02-08T13:36:14.205Z,7744
2019-02-08T13:37:16.317Z,7984
2019-02-08T13:38:18.444Z,7984
2019-02-08T13:39:20.586Z,7820
2019-02-08T13:40:22.692Z,8508
2019-02-08T13:41:24.806Z,7456
2019-02-08T13:42:26.936Z,7296
2019-02-08T13:43:29.054Z,6196
2019-02-08T13:44:31.163Z,4936
2019-02-08T13:45:33.295Z,4400
2019-02-08T13:46:35.411Z,4252
2019-02-08T13:47:37.533Z,4388
2019-02-08T13:48:39.665Z,4408
2019-02-08T13:49:42.061Z,4956
2019-02-08T13:50:44.562Z,4864
2019-02-08T13:51:46.692Z,4612
2019-02-08T13:52:48.829Z,4988
2019-02-08T13:53:50.957Z,5148
2019-02-08T13:54:53.088Z,4960
2019-02-08T13:55:55.198Z,6020
2019-02-08T13:57:00.607Z,8516
2019-02-08T13:58:03.599Z,9212
2019-02-08T13:59:07.476Z,11388
2019-02-08T14:00:09.613Z,10480
2019-02-08T14:01:11.721Z,9800
2019-02-08T14:02:13.839Z,8840
2019-02-08T14:03:16.345Z,8372
2019-02-08T14:04:18.452Z,8288
2019-02-08T14:05:20.865Z,8304
2019-02-08T14:06:23.013Z,7116
2019-02-08T14:07:25.462Z,6416
2019-02-08T14:08:27.558Z,6224
2019-02-08T14:09:29.889Z,6052
2019-02-08T14:10:31.999Z,5108
2019-02-08T14:11:34.137Z,4464
2019-02-08T14:12:36.557Z,4308
2019-02-08T14:13:40.559Z,4564
2019-02-08T14:14:43.281Z,4144
2019-02-08T14:15:45.708Z,4052
2019-02-08T14:16:47.830Z,3612
2019-02-08T14:17:49.944Z,3268
2019-02-08T14:18:52.075Z,3340
2019-02-08T14:19:54.182Z,3608
2019-02-08T14:20:56.306Z,3764
2019-02-08T14:21:59.019Z,4168
2019-02-08T14:23:01.140Z,4236
2019-02-08T14:24:03.658Z,3188
2019-02-08T14:25:05.790Z,2836